sensor_id;sensor_type;location;lat;lon;timestamp;P1;durP1;ratioP1;P2;durP2;ratioP2
56824;SDS011;42705;50.326;18.772;2023-02-12T00:00:14;19.20;;;11.30;;
56824;SDS011;42705;50.326;18.772;2023-02-12T00:05:59;19.40;;;11.00;;
56824;SDS011;42705;50.326;18.772;2023-02-12T00:11:23;18.00;;;11.40;;
56824;SDS011;42705;50.326;18.772;2023-02-12T00:16:47;20.40;;;11.00;;
56824;SDS011;42705;50.326;18.772;2023-02-12T00:22:08;22.90;;;12.20;;
56824;SDS011;42705;50.326;18.772;2023-02-12T00:27:32;19.80;;;12.00;;
56824;SDS011;42705;50.326;18.772;2023-02-12T00:32:55;20.70;;;11.80;;
56824;SDS011;42705;50.326;18.772;2023-02-12T00:38:16;22.10;;;13.40;;
56824;SDS011;42705;50.326;18.772;2023-02-12T00:43:39;18.10;;;11.50;;
56824;SDS011;42705;50.326;18.772;2023-02-12T00:49:00;24.30;;;13.50;;
56824;SDS011;42705;50.326;18.772;2023-02-12T00:54:21;20.30;;;12.50;;
56824;SDS011;42705;50.326;18.772;2023-02-12T00:59:43;19.70;;;13.10;;
56824;SDS011;42705;50.326;18.772;2023-02-12T01:05:04;23.30;;;13.00;;
56824;SDS011;42705;50.326;18.772;2023-02-12T01:10:26;19.00;;;11.10;;
56824;SDS011;42705;50.326;18.772;2023-02-12T01:15:47;23.10;;;13.40;;
56824;SDS011;42705;50.326;18.772;2023-02-12T01:26:30;18.40;;;10.40;;
56824;SDS011;42705;50.326;18.772;2023-02-12T01:31:52;26.00;;;13.70;;
56824;SDS011;42705;50.326;18.772;2023-02-12T01:37:14;23.20;;;13.40;;
56824;SDS011;42705;50.326;18.772;2023-02-12T01:42:35;27.30;;;14.30;;
56824;SDS011;42705;50.326;18.772;2023-02-12T01:47:58;25.80;;;13.40;;
56824;SDS011;42705;50.326;18.772;2023-02-12T01:53:21;23.90;;;13.90;;
56824;SDS011;42705;50.326;18.772;2023-02-12T01:58:48;33.80;;;16.20;;
56824;SDS011;42705;50.326;18.772;2023-02-12T02:04:14;27.40;;;14.70;;
56824;SDS011;42705;50.326;18.772;2023-02-12T02:09:39;30.30;;;15.90;;
56824;SDS011;42705;50.326;18.772;2023-02-12T02:15:01;33.80;;;18.10;;
56824;SDS011;42705;50.326;18.772;2023-02-12T02:31:38;30.20;;;16.10;;
56824;SDS011;42705;50.326;18.772;2023-02-12T02:37:17;29.50;;;16.30;;
56824;SDS011;42705;50.326;18.772;2023-02-12T02:43:08;27.40;;;15.00;;
56824;SDS011;42705;50.326;18.772;2023-02-12T02:48:36;25.70;;;13.90;;
56824;SDS011;42705;50.326;18.772;2023-02-12T02:59:34;27.40;;;14.70;;
56824;SDS011;42705;50.326;18.772;2023-02-12T03:05:01;27.30;;;13.90;;
56824;SDS011;42705;50.326;18.772;2023-02-12T03:10:30;25.50;;;13.40;;
56824;SDS011;42705;50.326;18.772;2023-02-12T03:15:58;19.80;;;11.70;;
56824;SDS011;42705;50.326;18.772;2023-02-12T03:21:28;26.20;;;12.90;;
56824;SDS011;42705;50.326;18.772;2023-02-12T03:27:02;22.40;;;12.20;;
56824;SDS011;42705;50.326;18.772;2023-02-12T03:32:40;24.40;;;11.50;;
56824;SDS011;42705;50.326;18.772;2023-02-12T03:43:27;21.10;;;11.80;;
56824;SDS011;42705;50.326;18.772;2023-02-12T03:49:00;22.20;;;11.90;;
56824;SDS011;42705;50.326;18.772;2023-02-12T03:54:26;25.20;;;11.90;;
56824;SDS011;42705;50.326;18.772;2023-02-12T03:59:48;25.90;;;12.30;;
56824;SDS011;42705;50.326;18.772;2023-02-12T04:05:17;22.80;;;11.70;;
56824;SDS011;42705;50.326;18.772;2023-02-12T04:33:27;31.60;;;14.10;;
56824;SDS011;42705;50.326;18.772;2023-02-12T04:38:54;32.10;;;14.40;;
56824;SDS011;42705;50.326;18.772;2023-02-12T04:44:21;28.30;;;14.20;;
56824;SDS011;42705;50.326;18.772;2023-02-12T04:49:45;22.80;;;12.80;;
56824;SDS011;42705;50.326;18.772;2023-02-12T04:55:06;26.30;;;13.10;;
56824;SDS011;42705;50.326;18.772;2023-02-12T05:00:27;25.60;;;13.50;;
56824;SDS011;42705;50.326;18.772;2023-02-12T05:05:48;24.80;;;12.60;;
56824;SDS011;42705;50.326;18.772;2023-02-12T05:11:10;28.40;;;13.50;;
56824;SDS011;42705;50.326;18.772;2023-02-12T05:16:31;24.80;;;13.70;;
56824;SDS011;42705;50.326;18.772;2023-02-12T05:21:52;27.20;;;13.80;;
56824;SDS011;42705;50.326;18.772;2023-02-12T05:27:13;29.50;;;13.80;;
56824;SDS011;42705;50.326;18.772;2023-02-12T05:32:34;27.20;;;13.20;;
56824;SDS011;42705;50.326;18.772;2023-02-12T05:37:55;24.10;;;12.80;;
56824;SDS011;42705;50.326;18.772;2023-02-12T05:43:16;27.10;;;13.80;;
56824;SDS011;42705;50.326;18.772;2023-02-12T05:48:38;28.50;;;13.80;;
56824;SDS011;42705;50.326;18.772;2023-02-12T05:54:00;30.20;;;12.80;;
56824;SDS011;42705;50.326;18.772;2023-02-12T05:59:23;29.50;;;13.80;;
56824;SDS011;42705;50.326;18.772;2023-02-12T06:04:45;29.30;;;14.90;;
56824;SDS011;42705;50.326;18.772;2023-02-12T06:10:06;28.50;;;14.80;;
56824;SDS011;42705;50.326;18.772;2023-02-12T06:15:28;34.90;;;15.20;;
56824;SDS011;42705;50.326;18.772;2023-02-12T06:20:49;30.00;;;14.00;;
56824;SDS011;42705;50.326;18.772;2023-02-12T06:26:10;31.20;;;15.20;;
56824;SDS011;42705;50.326;18.772;2023-02-12T06:31:33;34.50;;;18.00;;
56824;SDS011;42705;50.326;18.772;2023-02-12T06:36:56;34.10;;;15.60;;
56824;SDS011;42705;50.326;18.772;2023-02-12T06:42:17;28.90;;;14.20;;
56824;SDS011;42705;50.326;18.772;2023-02-12T06:47:38;25.50;;;13.30;;
56824;SDS011;42705;50.326;18.772;2023-02-12T06:52:59;31.30;;;14.10;;
56824;SDS011;42705;50.326;18.772;2023-02-12T06:58:20;29.00;;;14.80;;
56824;SDS011;42705;50.326;18.772;2023-02-12T07:03:43;32.10;;;16.00;;
56824;SDS011;42705;50.326;18.772;2023-02-12T07:09:08;22.20;;;10.60;;
56824;SDS011;42705;50.326;18.772;2023-02-12T07:14:29;24.70;;;10.80;;
56824;SDS011;42705;50.326;18.772;2023-02-12T07:19:51;24.20;;;10.90;;
56824;SDS011;42705;50.326;18.772;2023-02-12T07:25:12;17.40;;;7.60;;
56824;SDS011;42705;50.326;18.772;2023-02-12T07:30:33;15.90;;;8.10;;
56824;SDS011;42705;50.326;18.772;2023-02-12T07:35:54;18.80;;;8.50;;
56824;SDS011;42705;50.326;18.772;2023-02-12T07:41:20;19.60;;;8.50;;
56824;SDS011;42705;50.326;18.772;2023-02-12T07:46:45;16.30;;;7.80;;
56824;SDS011;42705;50.326;18.772;2023-02-12T07:52:08;15.50;;;8.00;;
56824;SDS011;42705;50.326;18.772;2023-02-12T07:57:29;18.20;;;9.00;;
56824;SDS011;42705;50.326;18.772;2023-02-12T08:02:51;24.40;;;12.00;;
56824;SDS011;42705;50.326;18.772;2023-02-12T08:08:13;19.80;;;8.70;;
56824;SDS011;42705;50.326;18.772;2023-02-12T08:13:34;17.50;;;9.00;;
56824;SDS011;42705;50.326;18.772;2023-02-12T08:18:59;20.20;;;9.60;;
56824;SDS011;42705;50.326;18.772;2023-02-12T08:31:17;16.80;;;6.10;;
56824;SDS011;42705;50.326;18.772;2023-02-12T08:36:49;12.30;;;6.00;;
56824;SDS011;42705;50.326;18.772;2023-02-12T08:42:13;20.00;;;8.20;;
56824;SDS011;42705;50.326;18.772;2023-02-12T08:47:34;15.30;;;6.50;;
56824;SDS011;42705;50.326;18.772;2023-02-12T08:52:56;12.70;;;5.50;;
56824;SDS011;42705;50.326;18.772;2023-02-12T08:58:17;12.80;;;5.70;;
56824;SDS011;42705;50.326;18.772;2023-02-12T09:03:38;16.70;;;7.00;;
56824;SDS011;42705;50.326;18.772;2023-02-12T09:08:59;11.10;;;5.20;;
56824;SDS011;42705;50.326;18.772;2023-02-12T09:14:21;10.20;;;5.70;;
56824;SDS011;42705;50.326;18.772;2023-02-12T09:19:43;16.60;;;6.80;;
56824;SDS011;42705;50.326;18.772;2023-02-12T09:25:04;11.10;;;5.20;;
56824;SDS011;42705;50.326;18.772;2023-02-12T09:30:26;10.10;;;5.10;;
56824;SDS011;42705;50.326;18.772;2023-02-12T09:35:48;12.00;;;4.90;;
56824;SDS011;42705;50.326;18.772;2023-02-12T09:41:35;18.10;;;8.40;;
56824;SDS011;42705;50.326;18.772;2023-02-12T09:52:39;12.20;;;5.40;;
56824;SDS011;42705;50.326;18.772;2023-02-12T09:58:03;10.20;;;4.40;;
56824;SDS011;42705;50.326;18.772;2023-02-12T10:03:32;9.80;;;4.80;;
56824;SDS011;42705;50.326;18.772;2023-02-12T10:08:56;11.50;;;4.70;;
56824;SDS011;42705;50.326;18.772;2023-02-12T10:20:04;9.80;;;3.90;;
56824;SDS011;42705;50.326;18.772;2023-02-12T10:25:57;12.50;;;3.70;;
56824;SDS011;42705;50.326;18.772;2023-02-12T10:31:28;11.10;;;3.90;;
56824;SDS011;42705;50.326;18.772;2023-02-12T10:36:53;9.00;;;4.00;;
56824;SDS011;42705;50.326;18.772;2023-02-12T10:42:38;9.10;;;3.80;;
56824;SDS011;42705;50.326;18.772;2023-02-12T10:53:32;6.30;;;3.30;;
56824;SDS011;42705;50.326;18.772;2023-02-12T10:58:55;8.50;;;3.00;;
56824;SDS011;42705;50.326;18.772;2023-02-12T11:04:25;9.90;;;3.70;;
56824;SDS011;42705;50.326;18.772;2023-02-12T11:09:50;7.90;;;4.60;;
56824;SDS011;42705;50.326;18.772;2023-02-12T11:15:13;8.20;;;3.90;;
56824;SDS011;42705;50.326;18.772;2023-02-12T11:20:38;7.30;;;3.20;;
56824;SDS011;42705;50.326;18.772;2023-02-12T11:31:37;8.50;;;3.90;;
56824;SDS011;42705;50.326;18.772;2023-02-12T11:37:01;13.90;;;4.30;;
56824;SDS011;42705;50.326;18.772;2023-02-12T11:42:24;10.30;;;3.70;;
56824;SDS011;42705;50.326;18.772;2023-02-12T11:47:48;15.20;;;4.80;;
56824;SDS011;42705;50.326;18.772;2023-02-12T11:53:16;10.50;;;4.70;;
56824;SDS011;42705;50.326;18.772;2023-02-12T11:58:42;7.10;;;3.80;;
56824;SDS011;42705;50.326;18.772;2023-02-12T12:04:11;9.30;;;4.50;;
56824;SDS011;42705;50.326;18.772;2023-02-12T12:15:37;14.80;;;5.40;;
56824;SDS011;42705;50.326;18.772;2023-02-12T12:21:33;12.20;;;5.30;;
56824;SDS011;42705;50.326;18.772;2023-02-12T12:27:03;9.90;;;5.50;;
56824;SDS011;42705;50.326;18.772;2023-02-12T12:32:55;13.10;;;4.90;;
56824;SDS011;42705;50.326;18.772;2023-02-12T12:49:13;14.60;;;5.30;;
56824;SDS011;42705;50.326;18.772;2023-02-12T13:17:37;13.70;;;7.00;;
56824;SDS011;42705;50.326;18.772;2023-02-12T13:28:46;9.10;;;5.40;;
56824;SDS011;42705;50.326;18.772;2023-02-12T13:34:13;10.10;;;5.90;;
56824;SDS011;42705;50.326;18.772;2023-02-12T13:39:38;11.50;;;6.00;;
56824;SDS011;42705;50.326;18.772;2023-02-12T13:45:13;8.10;;;5.20;;
56824;SDS011;42705;50.326;18.772;2023-02-12T13:50:45;10.60;;;5.70;;
56824;SDS011;42705;50.326;18.772;2023-02-12T14:02:04;10.90;;;7.30;;
56824;SDS011;42705;50.326;18.772;2023-02-12T14:07:41;9.90;;;6.60;;
56824;SDS011;42705;50.326;18.772;2023-02-12T14:13:22;10.90;;;7.10;;
56824;SDS011;42705;50.326;18.772;2023-02-12T14:18:45;12.30;;;7.30;;
56824;SDS011;42705;50.326;18.772;2023-02-12T14:40:46;17.00;;;9.60;;
56824;SDS011;42705;50.326;18.772;2023-02-12T14:57:36;20.30;;;11.20;;
56824;SDS011;42705;50.326;18.772;2023-02-12T15:14:22;23.00;;;11.90;;
56824;SDS011;42705;50.326;18.772;2023-02-12T15:25:26;18.90;;;10.90;;
56824;SDS011;42705;50.326;18.772;2023-02-12T15:30:48;25.40;;;13.70;;
56824;SDS011;42705;50.326;18.772;2023-02-12T15:41:37;28.50;;;13.10;;
56824;SDS011;42705;50.326;18.772;2023-02-12T15:47:13;26.60;;;14.30;;
56824;SDS011;42705;50.326;18.772;2023-02-12T15:52:37;37.80;;;19.30;;
56824;SDS011;42705;50.326;18.772;2023-02-12T15:58:01;28.80;;;16.30;;
56824;SDS011;42705;50.326;18.772;2023-02-12T16:03:24;31.10;;;17.10;;
56824;SDS011;42705;50.326;18.772;2023-02-12T16:08:48;37.10;;;17.80;;
56824;SDS011;42705;50.326;18.772;2023-02-12T16:14:22;39.00;;;19.30;;
56824;SDS011;42705;50.326;18.772;2023-02-12T16:19:52;58.00;;;30.50;;
56824;SDS011;42705;50.326;18.772;2023-02-12T16:25:31;49.50;;;26.20;;
56824;SDS011;42705;50.326;18.772;2023-02-12T16:31:07;45.50;;;22.20;;
56824;SDS011;42705;50.326;18.772;2023-02-12T16:36:31;54.90;;;28.30;;
56824;SDS011;42705;50.326;18.772;2023-02-12T16:41:54;31.80;;;16.60;;
56824;SDS011;42705;50.326;18.772;2023-02-12T16:47:19;24.90;;;13.10;;
56824;SDS011;42705;50.326;18.772;2023-02-12T16:52:45;27.70;;;13.20;;
56824;SDS011;42705;50.326;18.772;2023-02-12T16:58:07;31.80;;;14.70;;
56824;SDS011;42705;50.326;18.772;2023-02-12T17:03:28;31.80;;;17.40;;
56824;SDS011;42705;50.326;18.772;2023-02-12T17:08:50;47.60;;;24.40;;
56824;SDS011;42705;50.326;18.772;2023-02-12T17:14:16;61.70;;;28.60;;
56824;SDS011;42705;50.326;18.772;2023-02-12T17:19:39;55.10;;;25.10;;
56824;SDS011;42705;50.326;18.772;2023-02-12T17:25:00;52.60;;;24.00;;
56824;SDS011;42705;50.326;18.772;2023-02-12T17:30:21;63.00;;;29.10;;
56824;SDS011;42705;50.326;18.772;2023-02-12T17:35:44;55.80;;;26.90;;
56824;SDS011;42705;50.326;18.772;2023-02-12T17:41:09;97.10;;;42.70;;
56824;SDS011;42705;50.326;18.772;2023-02-12T17:46:31;139.30;;;62.80;;
56824;SDS011;42705;50.326;18.772;2023-02-12T17:51:52;153.20;;;73.20;;
56824;SDS011;42705;50.326;18.772;2023-02-12T17:57:14;173.80;;;79.70;;
56824;SDS011;42705;50.326;18.772;2023-02-12T18:02:39;175.70;;;73.90;;
56824;SDS011;42705;50.326;18.772;2023-02-12T18:08:01;148.80;;;63.80;;
56824;SDS011;42705;50.326;18.772;2023-02-12T18:13:23;114.10;;;53.10;;
56824;SDS011;42705;50.326;18.772;2023-02-12T18:18:45;89.30;;;43.00;;
56824;SDS011;42705;50.326;18.772;2023-02-12T18:24:06;101.50;;;45.00;;
56824;SDS011;42705;50.326;18.772;2023-02-12T18:29:28;116.30;;;51.90;;
56824;SDS011;42705;50.326;18.772;2023-02-12T18:34:50;111.50;;;52.70;;
56824;SDS011;42705;50.326;18.772;2023-02-12T18:40:11;98.40;;;45.50;;
56824;SDS011;42705;50.326;18.772;2023-02-12T18:45:33;128.80;;;57.30;;
56824;SDS011;42705;50.326;18.772;2023-02-12T18:50:58;95.20;;;45.60;;
56824;SDS011;42705;50.326;18.772;2023-02-12T18:56:20;128.10;;;54.70;;
56824;SDS011;42705;50.326;18.772;2023-02-12T19:01:42;98.50;;;45.50;;
56824;SDS011;42705;50.326;18.772;2023-02-12T19:07:07;89.50;;;43.10;;
56824;SDS011;42705;50.326;18.772;2023-02-12T19:12:28;105.60;;;50.60;;
56824;SDS011;42705;50.326;18.772;2023-02-12T19:17:50;123.50;;;57.40;;
56824;SDS011;42705;50.326;18.772;2023-02-12T19:23:11;161.10;;;71.60;;
56824;SDS011;42705;50.326;18.772;2023-02-12T19:28:33;155.90;;;72.50;;
56824;SDS011;42705;50.326;18.772;2023-02-12T19:33:56;222.90;;;100.70;;
56824;SDS011;42705;50.326;18.772;2023-02-12T19:39:20;188.20;;;84.10;;
56824;SDS011;42705;50.326;18.772;2023-02-12T19:44:42;210.40;;;93.90;;
56824;SDS011;42705;50.326;18.772;2023-02-12T19:50:04;237.80;;;106.30;;
56824;SDS011;42705;50.326;18.772;2023-02-12T19:55:26;227.70;;;95.70;;
56824;SDS011;42705;50.326;18.772;2023-02-12T20:00:48;178.00;;;78.60;;
56824;SDS011;42705;50.326;18.772;2023-02-12T20:06:15;169.90;;;72.90;;
56824;SDS011;42705;50.326;18.772;2023-02-12T20:11:40;144.30;;;63.00;;
56824;SDS011;42705;50.326;18.772;2023-02-12T20:17:03;170.00;;;69.80;;
56824;SDS011;42705;50.326;18.772;2023-02-12T20:22:24;162.80;;;67.90;;
56824;SDS011;42705;50.326;18.772;2023-02-12T20:27:46;157.10;;;66.10;;
56824;SDS011;42705;50.326;18.772;2023-02-12T20:33:09;144.80;;;64.80;;
56824;SDS011;42705;50.326;18.772;2023-02-12T20:38:34;161.60;;;67.70;;
56824;SDS011;42705;50.326;18.772;2023-02-12T20:43:57;114.00;;;50.90;;
56824;SDS011;42705;50.326;18.772;2023-02-12T20:49:20;129.70;;;57.10;;
56824;SDS011;42705;50.326;18.772;2023-02-12T20:54:42;117.30;;;50.60;;
56824;SDS011;42705;50.326;18.772;2023-02-12T21:00:06;113.20;;;51.80;;
56824;SDS011;42705;50.326;18.772;2023-02-12T21:05:30;121.70;;;53.80;;
56824;SDS011;42705;50.326;18.772;2023-02-12T21:11:01;151.90;;;66.30;;
56824;SDS011;42705;50.326;18.772;2023-02-12T21:16:29;136.70;;;58.30;;
56824;SDS011;42705;50.326;18.772;2023-02-12T21:21:53;157.40;;;68.20;;
56824;SDS011;42705;50.326;18.772;2023-02-12T21:27:16;205.60;;;87.10;;
56824;SDS011;42705;50.326;18.772;2023-02-12T21:32:37;212.40;;;93.50;;
56824;SDS011;42705;50.326;18.772;2023-02-12T21:38:01;188.90;;;77.60;;
56824;SDS011;42705;50.326;18.772;2023-02-12T21:43:23;143.00;;;62.80;;
56824;SDS011;42705;50.326;18.772;2023-02-12T21:48:45;141.10;;;60.60;;
56824;SDS011;42705;50.326;18.772;2023-02-12T21:54:08;163.80;;;69.80;;
56824;SDS011;42705;50.326;18.772;2023-02-12T21:59:35;120.50;;;52.20;;
56824;SDS011;42705;50.326;18.772;2023-02-12T22:04:56;126.70;;;56.60;;
56824;SDS011;42705;50.326;18.772;2023-02-12T22:10:17;146.40;;;61.70;;
56824;SDS011;42705;50.326;18.772;2023-02-12T22:15:39;178.40;;;67.50;;
56824;SDS011;42705;50.326;18.772;2023-02-12T22:21:00;176.70;;;72.80;;
56824;SDS011;42705;50.326;18.772;2023-02-12T22:26:23;184.40;;;67.10;;
56824;SDS011;42705;50.326;18.772;2023-02-12T22:31:46;173.70;;;68.50;;
56824;SDS011;42705;50.326;18.772;2023-02-12T22:37:07;157.50;;;63.90;;
56824;SDS011;42705;50.326;18.772;2023-02-12T22:42:29;148.80;;;61.00;;
56824;SDS011;42705;50.326;18.772;2023-02-12T22:47:50;152.30;;;65.00;;
56824;SDS011;42705;50.326;18.772;2023-02-12T22:53:11;157.20;;;64.00;;
56824;SDS011;42705;50.326;18.772;2023-02-12T22:58:32;146.60;;;62.70;;
56824;SDS011;42705;50.326;18.772;2023-02-12T23:09:17;163.30;;;67.00;;
56824;SDS011;42705;50.326;18.772;2023-02-12T23:14:40;159.00;;;62.90;;
56824;SDS011;42705;50.326;18.772;2023-02-12T23:20:01;162.30;;;67.90;;
56824;SDS011;42705;50.326;18.772;2023-02-12T23:25:23;150.40;;;60.60;;
56824;SDS011;42705;50.326;18.772;2023-02-12T23:30:46;136.50;;;60.90;;
56824;SDS011;42705;50.326;18.772;2023-02-12T23:41:29;143.80;;;63.30;;
56824;SDS011;42705;50.326;18.772;2023-02-12T23:46:50;161.60;;;66.00;;
56824;SDS011;42705;50.326;18.772;2023-02-12T23:52:13;144.90;;;63.00;;
56824;SDS011;42705;50.326;18.772;2023-02-12T23:57:34;151.30;;;65.20;;
